Time;durP1;ratioP1;P1;durP2;ratioP2;P2;SDS_P1;SDS_P2;PMS_P1;PMS_P2;Temp;Humidity;BMP_temperature;BMP_pressure;BME280_temperature;BME280_humidity;BME280_pressure;Samples;Min_cycle;Max_cycle;Signal;HPM_P1;HPM_P2
2022/11/22 00:00:13;;;;;;;;;;;;;;;4.68;nan;100511.00;5019086;28;19925;-31
2022/11/22 00:02:39;;;;;;;;;;;;;;;4.71;nan;100508.72;5019735;28;19963;-32
2022/11/22 00:05:04;;;;;;;;;;;;;;;4.72;nan;100509.53;5018532;28;19929;-31
2022/11/22 00:07:30;;;;;;;;;;;;;;;4.74;nan;100518.91;5017710;28;19980;-31
2022/11/22 00:09:55;;;;;;;;;;;;;;;4.72;nan;100498.91;5020278;28;19951;-31
2022/11/22 00:12:20;;;;;;;;;;;;;;;4.73;nan;100490.75;5018312;28;19928;-31
2022/11/22 00:14:46;;;;;;;;;;;;;;;4.71;nan;100492.00;5017710;28;19929;-31
2022/11/22 00:17:11;;;;;;;;;;;;;;;4.66;nan;100487.31;5021545;28;19921;-31
2022/11/22 00:19:40;;;;;;;;;;;;;;;4.69;nan;100494.06;5019137;28;19917;-31
2022/11/22 00:22:06;;;;;;;;;;;;;;;4.69;nan;100494.06;5018712;28;20551;-31
2022/11/22 00:24:31;;;;;;;;;;;;;;;4.71;nan;100497.28;5019059;28;19921;-31
2022/11/22 00:26:56;;;;;;;;;;;;;;;4.72;nan;100496.25;5018027;28;19929;-31
2022/11/22 00:29:22;;;;;;;;;;;;;;;4.74;nan;100494.22;5020052;28;19917;-31
2022/11/22 00:31:47;;;;;;;;;;;;;;;4.73;nan;100490.75;5016924;28;20428;-31
2022/11/22 00:34:12;;;;;;;;;;;;;;;4.71;nan;100486.69;5020889;28;20378;-31
2022/11/22 00:36:38;;;;;;;;;;;;;;;4.65;nan;100484.88;5019679;28;19917;-31
2022/11/22 00:39:03;;;;;;;;;;;;;;;4.66;nan;100483.84;5014145;28;20032;-31
2022/11/22 00:41:28;;;;;;;;;;;;;;;4.65;nan;100479.56;5019772;28;19948;-31
2022/11/22 00:43:54;;;;;;;;;;;;;;;4.64;nan;100467.31;5016543;28;20010;-31
2022/11/22 00:46:19;;;;;;;;;;;;;;;4.64;nan;100484.06;5019074;28;20007;-31
2022/11/22 00:48:44;;;;;;;;;;;;;;;4.66;nan;100487.31;5019897;28;20007;-31
2022/11/22 00:51:11;;;;;;;;;;;;;;;4.64;nan;100481.41;5020133;28;19918;-32
2022/11/22 00:53:36;;;;;;;;;;;;;;;4.63;nan;100482.44;5016649;28;19994;-31
2022/11/22 00:56:01;;;;;;;;;;;;;;;4.63;nan;100478.97;5020092;28;19964;-31
2022/11/22 00:58:27;;;;;;;;;;;;;;;4.61;nan;100470.41;5018215;28;20022;-31
2022/11/22 01:00:52;;;;;;;;;;;;;;;4.60;nan;100468.78;5019626;28;19921;-31
2022/11/22 01:03:17;;;;;;;;;;;;;;;4.57;nan;100461.25;5016711;28;19917;-31
2022/11/22 01:05:43;;;;;;;;;;;;;;;4.56;nan;100457.78;5018576;28;19925;-31
2022/11/22 01:08:08;;;;;;;;;;;;;;;4.51;nan;100453.16;5019780;28;19921;-31
2022/11/22 01:10:35;;;;;;;;;;;;;;;4.48;nan;100442.94;5016968;28;19945;-31
2022/11/22 01:13:00;;;;;;;;;;;;;;;4.48;nan;100450.09;5019320;28;20033;-31
2022/11/22 01:15:25;;;;;;;;;;;;;;;4.50;nan;100443.56;5018231;28;19960;-32
2022/11/22 01:17:51;;;;;;;;;;;;;;;4.53;nan;100443.13;5012282;28;19924;-32
2022/11/22 01:20:16;;;;;;;;;;;;;;;4.52;nan;100448.66;5017700;28;19921;-32
2022/11/22 01:22:41;;;;;;;;;;;;;;;4.52;nan;100449.47;5016888;28;19928;-32
2022/11/22 01:25:07;;;;;;;;;;;;;;;4.52;nan;100441.50;5017189;28;19921;-32
2022/11/22 01:27:33;;;;;;;;;;;;;;;4.54;nan;100449.25;5021455;28;19932;-32
2022/11/22 01:29:58;;;;;;;;;;;;;;;4.57;nan;100442.69;5018918;28;20367;-32
2022/11/22 01:32:24;;;;;;;;;;;;;;;4.57;nan;100442.69;5022819;28;19940;-32
2022/11/22 01:34:49;;;;;;;;;;;;;;;4.59;nan;100440.63;5022638;28;20020;-32
2022/11/22 01:37:14;;;;;;;;;;;;;;;4.60;nan;100442.25;5019401;28;20003;-32
2022/11/22 01:39:40;;;;;;;;;;;;;;;4.62;nan;100434.88;5020405;28;20058;-32
2022/11/22 01:42:05;;;;;;;;;;;;;;;4.60;nan;100415.72;5023056;28;20337;-32
2022/11/22 01:44:31;;;;;;;;;;;;;;;4.60;nan;100421.84;5023435;28;19923;-32
2022/11/22 01:46:59;;;;;;;;;;;;;;;4.62;nan;100429.56;5021885;28;20345;-32
2022/11/22 01:49:25;;;;;;;;;;;;;;;4.64;nan;100425.69;5020165;28;19917;-33
2022/11/22 01:51:52;;;;;;;;;;;;;;;4.65;nan;100424.66;5020846;28;20414;-32
2022/11/22 01:54:20;;;;;;;;;;;;;;;4.66;nan;100433.41;5023903;28;20382;-32
2022/11/22 01:56:49;;;;;;;;;;;;;;;4.67;nan;100427.91;5020865;28;19917;-33
2022/11/22 01:59:16;;;;;;;;;;;;;;;4.67;nan;100427.91;5022914;28;19918;-32
2022/11/22 02:01:42;;;;;;;;;;;;;;;4.67;nan;100424.44;5015943;28;19921;-32
2022/11/22 02:04:09;;;;;;;;;;;;;;;4.62;nan;100418.97;5020365;28;19990;-32
2022/11/22 02:06:55;;;;;;;;;;;;;;;4.62;nan;100430.38;5017312;28;19937;-32
2022/11/22 02:09:20;;;;;;;;;;;;;;;4.67;nan;100437.69;5013172;28;20015;-32
2022/11/22 02:11:47;;;;;;;;;;;;;;;4.69;nan;100435.66;5018164;28;20405;-33
2022/11/22 02:14:13;;;;;;;;;;;;;;;4.71;nan;100438.91;5018213;28;19972;-32
2022/11/22 02:16:40;;;;;;;;;;;;;;;4.72;nan;100435.22;5024087;28;19917;-32
2022/11/22 02:19:11;;;;;;;;;;;;;;;4.75;nan;100440.09;5020060;28;19917;-32
2022/11/22 02:21:36;;;;;;;;;;;;;;;4.78;nan;100450.28;5021575;28;19996;-32
2022/11/22 02:24:08;;;;;;;;;;;;;;;4.76;nan;100453.16;5020563;28;20016;-32
2022/11/22 02:26:34;;;;;;;;;;;;;;;4.78;nan;100456.38;5021022;28;19929;-32
2022/11/22 02:29:04;;;;;;;;;;;;;;;4.82;nan;100446.16;5023505;28;19917;-32
2022/11/22 02:31:34;;;;;;;;;;;;;;;4.82;nan;100435.53;5022511;28;19971;-32
2022/11/22 02:33:59;;;;;;;;;;;;;;;4.81;nan;100428.59;5021583;28;19924;-32
2022/11/22 02:36:25;;;;;;;;;;;;;;;4.83;nan;100426.53;5022889;28;20325;-32
2022/11/22 02:38:50;;;;;;;;;;;;;;;4.87;nan;100426.94;5021282;28;20444;-32
2022/11/22 02:41:16;;;;;;;;;;;;;;;4.82;nan;100416.94;5020600;28;20002;-32
2022/11/22 02:43:43;;;;;;;;;;;;;;;4.80;nan;100424.31;5020581;28;19945;-32
2022/11/22 02:46:10;;;;;;;;;;;;;;;4.81;nan;100429.41;5021358;28;20666;-32
2022/11/22 02:48:41;;;;;;;;;;;;;;;4.83;nan;100429.19;5020801;28;19963;-32
2022/11/22 02:51:07;;;;;;;;;;;;;;;4.87;nan;100433.06;5018271;28;19917;-33
2022/11/22 02:53:32;;;;;;;;;;;;;;;4.87;nan;100432.25;5021545;28;19917;-33
2022/11/22 02:55:57;;;;;;;;;;;;;;;4.85;nan;100432.47;5020871;28;19917;-32
2022/11/22 02:58:23;;;;;;;;;;;;;;;4.84;nan;100441.44;5019343;28;19925;-32
2022/11/22 03:00:48;;;;;;;;;;;;;;;4.86;nan;100436.75;5021462;28;19917;-32
2022/11/22 03:03:14;;;;;;;;;;;;;;;4.91;nan;100436.06;5018588;28;19926;-32
2022/11/22 03:05:39;;;;;;;;;;;;;;;4.95;nan;100434.59;5020905;28;19963;-32
2022/11/22 03:08:05;;;;;;;;;;;;;;;4.98;nan;100427.00;5021324;28;20028;-32
2022/11/22 03:10:30;;;;;;;;;;;;;;;5.00;nan;100432.91;5021535;28;19921;-33
2022/11/22 03:12:58;;;;;;;;;;;;;;;5.02;nan;100424.72;5023393;28;19917;-32
2022/11/22 03:15:24;;;;;;;;;;;;;;;5.01;nan;100420.44;5020558;28;19925;-32
2022/11/22 03:17:55;;;;;;;;;;;;;;;5.01;nan;100429.22;5022567;28;19917;-32
2022/11/22 03:20:20;;;;;;;;;;;;;;;5.03;nan;100424.53;5021107;28;19921;-33
2022/11/22 03:22:46;;;;;;;;;;;;;;;5.04;nan;100420.03;5021669;28;20318;-32
2022/11/22 03:25:11;;;;;;;;;;;;;;;5.01;nan;100413.28;5020330;28;20386;-32
2022/11/22 03:27:36;;;;;;;;;;;;;;;5.02;nan;100414.09;5019932;28;20406;-32
2022/11/22 03:30:02;;;;;;;;;;;;;;;4.93;nan;100402.97;5020035;28;19917;-32
2022/11/22 03:32:27;;;;;;;;;;;;;;;4.95;nan;100390.28;5022434;28;19924;-32
2022/11/22 03:34:53;;;;;;;;;;;;;;;4.93;nan;100384.38;5021473;28;19921;-33
2022/11/22 03:37:18;;;;;;;;;;;;;;;4.98;nan;100381.88;5018236;28;20374;-32
2022/11/22 03:39:43;;;;;;;;;;;;;;;5.00;nan;100386.97;5018346;28;19921;-33
2022/11/22 03:42:09;;;;;;;;;;;;;;;5.01;nan;100384.09;5018699;28;19917;-32
2022/11/22 03:44:34;;;;;;;;;;;;;;;5.04;nan;100394.28;5018400;28;19982;-31
2022/11/22 03:46:59;;;;;;;;;;;;;;;5.06;nan;100394.06;5018117;28;19928;-32
2022/11/22 03:49:25;;;;;;;;;;;;;;;5.11;nan;100396.88;5016700;28;19948;-32
2022/11/22 03:51:50;;;;;;;;;;;;;;;5.11;nan;100403.00;5021887;28;20260;-32
2022/11/22 03:54:15;;;;;;;;;;;;;;;5.13;nan;100406.22;5018078;28;19972;-32
2022/11/22 03:56:41;;;;;;;;;;;;;;;5.12;nan;100412.56;5019135;28;20563;-32
2022/11/22 03:59:06;;;;;;;;;;;;;;;5.12;nan;100414.41;5016588;28;19924;-32
2022/11/22 04:01:31;;;;;;;;;;;;;;;5.14;nan;100412.34;5019007;28;19917;-32
2022/11/22 04:03:57;;;;;;;;;;;;;;;5.17;nan;100419.88;5019036;28;20023;-32
2022/11/22 04:06:22;;;;;;;;;;;;;;;5.16;nan;100420.91;5019710;28;19937;-33
2022/11/22 04:08:47;;;;;;;;;;;;;;;5.18;nan;100424.16;5018504;28;20294;-32
2022/11/22 04:11:13;;;;;;;;;;;;;;;5.19;nan;100424.97;5020656;28;20307;-33
2022/11/22 04:16:22;;;;;;;;;;;;;;;5.24;nan;100423.28;5021071;28;21249;-32
2022/11/22 04:18:47;;;;;;;;;;;;;;;5.27;nan;100437.97;5021301;28;19921;-32
2022/11/22 04:26:40;;;;;;;;;;;;;;;5.19;nan;100431.09;5015757;28;19931;-31
2022/11/22 04:29:06;;;;;;;;;;;;;;;5.21;nan;100433.56;5019547;28;19925;-33
2022/11/22 04:34:15;;;;;;;;;;;;;;;5.20;nan;100408.00;5020523;28;19931;-33
2022/11/22 04:36:41;;;;;;;;;;;;;;;5.14;nan;100413.16;5017608;28;19925;-32
2022/11/22 04:39:06;;;;;;;;;;;;;;;5.15;nan;100409.47;5018982;28;19925;-32
2022/11/22 04:41:31;;;;;;;;;;;;;;;5.10;nan;100400.56;5020199;28;19921;-32
2022/11/22 04:46:41;;;;;;;;;;;;;;;5.05;nan;100395.91;5019355;28;19941;-33
2022/11/22 04:49:06;;;;;;;;;;;;;;;5.10;nan;100396.06;5019432;28;19921;-32
2022/11/22 04:54:16;;;;;;;;;;;;;;;5.09;nan;100396.28;5016870;28;20414;-32
2022/11/22 04:56:41;;;;;;;;;;;;;;;5.12;nan;100398.47;5020531;28;20031;-33
2022/11/22 04:59:06;;;;;;;;;;;;;;;5.15;nan;100406.81;5020271;28;19932;-32
2022/11/22 05:01:32;;;;;;;;;;;;;;;5.11;nan;100392.38;5021653;28;20046;-32
2022/11/22 05:03:57;;;;;;;;;;;;;;;5.12;nan;100391.34;5020461;28;19917;-32
2022/11/22 05:06:22;;;;;;;;;;;;;;;5.18;nan;100380.84;5023062;28;20004;-32
2022/11/22 05:08:48;;;;;;;;;;;;;;;5.19;nan;100366.53;5024508;28;20382;-32
2022/11/22 05:11:13;;;;;;;;;;;;;;;5.21;nan;100361.84;5021894;28;19968;-33
2022/11/22 05:13:39;;;;;;;;;;;;;;;5.25;nan;100353.19;5020700;28;19956;-32
2022/11/22 05:16:05;;;;;;;;;;;;;;;5.25;nan;100347.06;5024282;28;19917;-33
2022/11/22 05:18:31;;;;;;;;;;;;;;;5.22;nan;100350.19;5023243;28;20316;-33
2022/11/22 05:20:57;;;;;;;;;;;;;;;5.24;nan;100348.13;5020773;28;19928;-33
2022/11/22 05:26:07;;;;;;;;;;;;;;;5.18;nan;100363.06;5021244;28;19975;-32
2022/11/22 05:28:34;;;;;;;;;;;;;;;5.19;nan;100355.91;5021745;28;19974;-33
2022/11/22 05:31:05;;;;;;;;;;;;;;;5.18;nan;100364.91;5021035;28;20011;-32
2022/11/22 05:33:30;;;;;;;;;;;;;;;5.21;nan;100360.00;5021481;28;20032;-32
2022/11/22 05:35:58;;;;;;;;;;;;;;;5.26;nan;100356.66;5024361;28;19917;-32
2022/11/22 05:38:23;;;;;;;;;;;;;;;5.27;nan;100359.09;5022121;28;19932;-33
2022/11/22 05:40:49;;;;;;;;;;;;;;;5.27;nan;100366.25;5022618;28;19917;-32
2022/11/22 05:43:14;;;;;;;;;;;;;;;5.28;nan;100371.34;5019250;28;20384;-33
2022/11/22 05:45:39;;;;;;;;;;;;;;;5.27;nan;100368.91;5021896;28;19932;-32
2022/11/22 05:48:05;;;;;;;;;;;;;;;5.25;nan;100377.09;5020616;28;20036;-33
2022/11/22 05:50:30;;;;;;;;;;;;;;;5.28;nan;100381.16;5022227;28;19995;-32
2022/11/22 05:52:59;;;;;;;;;;;;;;;5.29;nan;100362.34;5021897;28;19924;-33
2022/11/22 05:55:24;;;;;;;;;;;;;;;5.30;nan;100373.78;5018918;28;19969;-33
2022/11/22 05:57:49;;;;;;;;;;;;;;;5.35;nan;100371.25;5023133;28;19921;-32
2022/11/22 06:00:15;;;;;;;;;;;;;;;5.36;nan;100372.88;5020825;28;19925;-33
2022/11/22 06:02:40;;;;;;;;;;;;;;;5.36;nan;100371.03;5018366;28;20477;-33
2022/11/22 06:05:06;;;;;;;;;;;;;;;5.34;nan;100366.97;5018517;28;19925;-32
2022/11/22 06:07:31;;;;;;;;;;;;;;;5.33;nan;100378.63;5020829;28;19925;-32
2022/11/22 06:09:56;;;;;;;;;;;;;;;5.33;nan;100378.63;5018765;28;20469;-33
2022/11/22 06:12:22;;;;;;;;;;;;;;;5.32;nan;100387.63;5034141;28;20264;-33
2022/11/22 06:14:47;;;;;;;;;;;;;;;5.33;nan;100394.56;5022850;28;19921;-32
2022/11/22 06:17:12;;;;;;;;;;;;;;;5.33;nan;100397.22;5019076;28;21378;-32
2022/11/22 06:19:38;;;;;;;;;;;;;;;5.31;nan;100401.97;5024387;28;19917;-32
2022/11/22 06:22:03;;;;;;;;;;;;;;;5.25;nan;100394.88;5019496;28;20013;-33
2022/11/22 06:24:28;;;;;;;;;;;;;;;5.29;nan;100401.38;5020536;28;19987;-33
2022/11/22 06:26:54;;;;;;;;;;;;;;;5.32;nan;100400.94;5019585;28;19983;-33
2022/11/22 06:29:19;;;;;;;;;;;;;;;5.34;nan;100407.63;5018388;28;20115;-32
2022/11/22 06:31:44;;;;;;;;;;;;;;;5.31;nan;100402.75;5022754;28;19928;-33
2022/11/22 06:34:11;;;;;;;;;;;;;;;5.30;nan;100401.16;5018706;28;19929;-32
2022/11/22 06:36:36;;;;;;;;;;;;;;;5.36;nan;100410.06;5021108;28;20439;-33
2022/11/22 06:39:02;;;;;;;;;;;;;;;5.37;nan;100411.69;5019461;28;20016;-32
2022/11/22 06:41:31;;;;;;;;;;;;;;;5.29;nan;100404.84;5020775;28;19965;-33
2022/11/22 06:43:57;;;;;;;;;;;;;;;5.35;nan;100400.47;5017692;28;19917;-33
2022/11/22 06:46:23;;;;;;;;;;;;;;;5.40;nan;100405.97;5021081;28;19921;-33
2022/11/22 06:48:49;;;;;;;;;;;;;;;5.39;nan;100394.53;5020363;28;20056;-32
2022/11/22 06:51:15;;;;;;;;;;;;;;;5.40;nan;100396.13;5022283;28;19926;-32
2022/11/22 06:53:41;;;;;;;;;;;;;;;5.42;nan;100398.56;5023744;28;20081;-33
2022/11/22 06:56:14;;;;;;;;;;;;;;;5.41;nan;100391.63;5023647;28;19956;-33
2022/11/22 06:58:40;;;;;;;;;;;;;;;5.48;nan;100397.66;5023442;28;20334;-32
2022/11/22 07:01:07;;;;;;;;;;;;;;;5.46;nan;100402.41;5023212;28;20031;-32
2022/11/22 07:03:36;;;;;;;;;;;;;;;5.49;nan;100409.91;5022997;28;20367;-32
2022/11/22 07:06:02;;;;;;;;;;;;;;;5.49;nan;100415.22;5022003;28;19925;-33
2022/11/22 07:08:27;;;;;;;;;;;;;;;5.52;nan;100419.28;5020125;28;19921;-32
2022/11/22 07:10:53;;;;;;;;;;;;;;;5.56;nan;100417.81;5023970;28;20023;-33
2022/11/22 07:13:18;;;;;;;;;;;;;;;5.54;nan;100422.53;5022562;28;19953;-33
2022/11/22 07:15:52;;;;;;;;;;;;;;;5.53;nan;100420.91;5024568;28;20330;-33
2022/11/22 07:18:18;;;;;;;;;;;;;;;5.47;nan;100414.66;5022774;28;20374;-32
2022/11/22 07:20:43;;;;;;;;;;;;;;;5.49;nan;100409.09;5023100;28;19921;-33
2022/11/22 07:23:11;;;;;;;;;;;;;;;5.53;nan;100415.59;5021599;28;19942;-33
2022/11/22 07:25:36;;;;;;;;;;;;;;;5.57;nan;100409.63;5022793;28;19942;-32
2022/11/22 07:28:02;;;;;;;;;;;;;;;5.58;nan;100399.81;5023637;28;20409;-32
2022/11/22 07:30:27;;;;;;;;;;;;;;;5.61;nan;100396.69;5021445;28;19924;-33
2022/11/22 07:32:52;;;;;;;;;;;;;;;5.64;nan;100402.38;5022777;28;19917;-32
2022/11/22 07:35:17;;;;;;;;;;;;;;;5.66;nan;100410.94;5019984;28;19913;-33
2022/11/22 07:37:43;;;;;;;;;;;;;;;5.67;nan;100412.56;5022416;28;19932;-32
2022/11/22 07:40:09;;;;;;;;;;;;;;;5.69;nan;100410.47;5021910;28;19921;-32
2022/11/22 07:42:34;;;;;;;;;;;;;;;5.68;nan;100414.19;5022836;28;19967;-32
2022/11/22 07:44:59;;;;;;;;;;;;;;;5.69;nan;100412.31;5022546;28;19924;-32
2022/11/22 07:47:25;;;;;;;;;;;;;;;5.68;nan;100408.06;5014528;28;20075;-33
2022/11/22 07:49:50;;;;;;;;;;;;;;;5.66;nan;100418.09;5022539;28;19917;-32
2022/11/22 07:52:15;;;;;;;;;;;;;;;5.70;nan;100417.41;5021091;28;19925;-33
2022/11/22 07:54:41;;;;;;;;;;;;;;;5.68;nan;100419.50;5022588;28;19974;-33
2022/11/22 07:57:06;;;;;;;;;;;;;;;5.71;nan;100432.34;5023114;28;19975;-33
2022/11/22 07:59:31;;;;;;;;;;;;;;;5.72;nan;100420.66;5021184;28;20067;-32
2022/11/22 08:01:57;;;;;;;;;;;;;;;5.66;nan;100418.91;5022524;28;20406;-32
2022/11/22 08:04:22;;;;;;;;;;;;;;;5.66;nan;100424.22;5020964;28;20493;-32
2022/11/22 08:06:47;;;;;;;;;;;;;;;5.68;nan;100419.50;5020929;28;19928;-33
2022/11/22 08:09:13;;;;;;;;;;;;;;;5.70;nan;100424.59;5022466;28;20387;-32
2022/11/22 08:11:38;;;;;;;;;;;;;;;5.70;nan;100420.06;5022874;28;20414;-32
2022/11/22 08:14:03;;;;;;;;;;;;;;;5.71;nan;100431.53;5021480;28;19921;-32
2022/11/22 08:16:29;;;;;;;;;;;;;;;5.76;nan;100426.38;5021580;28;19924;-32
2022/11/22 08:18:54;;;;;;;;;;;;;;;5.84;nan;100427.91;5024146;28;19925;-33
2022/11/22 08:21:20;;;;;;;;;;;;;;;5.90;nan;100427.00;5021968;28;20023;-32
2022/11/22 08:23:46;;;;;;;;;;;;;;;5.88;nan;100421.09;5022045;28;19921;-32
2022/11/22 08:26:12;;;;;;;;;;;;;;;5.90;nan;100419.84;5022480;28;19972;-32
2022/11/22 08:28:38;;;;;;;;;;;;;;;5.97;nan;100419.78;5019974;28;19928;-32
2022/11/22 08:31:05;;;;;;;;;;;;;;;6.01;nan;100412.97;5020919;28;19921;-32
2022/11/22 08:33:30;;;;;;;;;;;;;;;6.04;nan;100415.16;5021814;28;20264;-32
2022/11/22 08:35:55;;;;;;;;;;;;;;;5.97;nan;100423.25;5022868;28;19924;-33
2022/11/22 08:38:21;;;;;;;;;;;;;;;6.01;nan;100418.28;5019028;28;19952;-33
2022/11/22 08:40:46;;;;;;;;;;;;;;;6.06;nan;100413.09;5021552;28;19921;-33
2022/11/22 08:43:11;;;;;;;;;;;;;;;6.09;nan;100417.16;5023173;28;19929;-33
2022/11/22 08:45:37;;;;;;;;;;;;;;;6.13;nan;100413.81;5022991;28;19925;-32
2022/11/22 08:48:03;;;;;;;;;;;;;;;6.14;nan;100409.31;5022245;28;19921;-33
2022/11/22 08:50:28;;;;;;;;;;;;;;;6.01;nan;100402.31;5017461;28;19951;-33
2022/11/22 08:52:53;;;;;;;;;;;;;;;6.00;nan;100398.06;5024339;28;19991;-32
2022/11/22 08:55:19;;;;;;;;;;;;;;;5.96;nan;100395.03;5021640;28;19975;-32
2022/11/22 08:57:44;;;;;;;;;;;;;;;5.99;nan;100385.78;5022438;28;19983;-32
2022/11/22 09:00:10;;;;;;;;;;;;;;;5.92;nan;100388.53;5020331;28;19949;-32
2022/11/22 09:02:35;;;;;;;;;;;;;;;5.96;nan;100381.75;5021747;28;19929;-32
2022/11/22 09:05:01;;;;;;;;;;;;;;;6.00;nan;100385.56;5022706;28;19917;-32
2022/11/22 09:07:27;;;;;;;;;;;;;;;6.08;nan;100395.06;5022223;28;20425;-32
2022/11/22 09:09:52;;;;;;;;;;;;;;;6.09;nan;100387.88;5022285;28;19923;-31
2022/11/22 09:12:18;;;;;;;;;;;;;;;6.12;nan;100385.59;5023294;28;20304;-32
2022/11/22 09:14:43;;;;;;;;;;;;;;;6.16;nan;100378.78;5022786;28;19971;-32
2022/11/22 09:17:08;;;;;;;;;;;;;;;6.16;nan;100370.81;5022698;28;20190;-32
2022/11/22 09:19:34;;;;;;;;;;;;;;;6.16;nan;100360.16;5017293;28;19987;-32
2022/11/22 09:21:59;;;;;;;;;;;;;;;6.08;nan;100363.13;5022158;28;19921;-33
2022/11/22 09:24:24;;;;;;;;;;;;;;;6.06;nan;100357.25;5021037;28;20390;-33
2022/11/22 09:26:50;;;;;;;;;;;;;;;6.06;nan;100358.06;5023047;28;20425;-32
2022/11/22 09:29:15;;;;;;;;;;;;;;;6.11;nan;100353.91;5018722;28;20330;-33
2022/11/22 09:31:40;;;;;;;;;;;;;;;6.08;nan;100349.84;5022251;28;20341;-32
2022/11/22 09:34:06;;;;;;;;;;;;;;;6.17;nan;100347.69;5021896;28;19921;-32
2022/11/22 09:36:31;;;;;;;;;;;;;;;6.20;nan;100350.69;5019808;28;20007;-32
2022/11/22 09:38:57;;;;;;;;;;;;;;;6.21;nan;100362.13;5022269;28;19987;-32
2022/11/22 09:41:22;;;;;;;;;;;;;;;6.22;nan;100353.91;5020520;28;19921;-32
2022/11/22 09:43:56;;;;;;;;;;;;;;;6.25;nan;100350.78;5019648;28;20294;-32
2022/11/22 09:46:31;;;;;;;;;;;;;;;6.19;nan;100358.91;5021721;28;19979;-33
2022/11/22 09:49:05;;;;;;;;;;;;;;;6.23;nan;100358.19;5022485;28;20178;-32
2022/11/22 09:51:57;;;;;;;;;;;;;;;6.26;nan;100355.06;5023492;28;19949;-33
2022/11/22 09:54:29;;;;;;;;;;;;;;;6.27;nan;100371.84;5002976;28;19917;-33
2022/11/22 09:56:57;;;;;;;;;;;;;;;6.23;nan;100384.81;5026873;28;20034;-32
2022/11/22 09:59:25;;;;;;;;;;;;;;;6.23;nan;100400.75;5024961;28;19921;-32
2022/11/22 10:02:17;;;;;;;;;;;;;;;6.26;nan;100408.28;5027012;28;20445;-33
2022/11/22 10:04:52;;;;;;;;;;;;;;;6.29;nan;100405.19;5021869;28;19921;-33
2022/11/22 10:07:19;;;;;;;;;;;;;;;6.35;nan;100412.25;5023004;28;19925;-33
2022/11/22 10:10:03;;;;;;;;;;;;;;;6.40;nan;100418.75;5025353;28;20386;-32
2022/11/22 10:12:28;;;;;;;;;;;;;;;6.41;nan;100412.38;5024627;28;19917;-32
2022/11/22 10:15:20;;;;;;;;;;;;;;;6.42;nan;100412.16;5027154;28;20067;-33
2022/11/22 10:18:03;;;;;;;;;;;;;;;6.40;nan;100405.44;5020623;28;20353;-32
2022/11/22 10:20:31;;;;;;;;;;;;;;;6.32;nan;100404.72;5022346;28;19924;-33
2022/11/22 10:22:57;;;;;;;;;;;;;;;6.34;nan;100415.97;5023677;28;19920;-33
2022/11/22 10:25:22;;;;;;;;;;;;;;;6.40;nan;100410.75;5023585;28;19921;-32
2022/11/22 10:27:59;;;;;;;;;;;;;;;6.45;nan;100408.22;5024322;28;19928;-33
2022/11/22 10:30:24;;;;;;;;;;;;;;;6.49;nan;100394.25;5023390;28;19921;-33
2022/11/22 10:33:19;;;;;;;;;;;;;;;6.53;nan;100391.91;5024963;28;20473;-33
2022/11/22 10:35:44;;;;;;;;;;;;;;;6.52;nan;100406.28;5005167;28;19925;-32
2022/11/22 10:38:28;;;;;;;;;;;;;;;6.48;nan;100407.78;5023670;28;19963;-33
2022/11/22 10:41:16;;;;;;;;;;;;;;;6.43;nan;100415.63;5019350;28;19967;-33
2022/11/22 10:43:45;;;;;;;;;;;;;;;6.45;nan;100402.88;5021867;28;20013;-33
2022/11/22 10:46:22;;;;;;;;;;;;;;;6.45;nan;100414.34;5024927;28;20371;-33
2022/11/22 10:48:51;;;;;;;;;;;;;;;6.46;nan;100410.63;5022622;28;19945;-32
2022/11/22 10:51:16;;;;;;;;;;;;;;;6.48;nan;100402.47;5020154;28;20282;-33
2022/11/22 10:54:00;;;;;;;;;;;;;;;6.46;nan;100400.00;5023863;28;19925;-33
2022/11/22 10:56:34;;;;;;;;;;;;;;;6.50;nan;100395.03;5024469;28;20440;-32
2022/11/22 10:58:59;;;;;;;;;;;;;;;6.58;nan;100397.34;5024187;28;19987;-32
2022/11/22 11:01:34;;;;;;;;;;;;;;;6.64;nan;100407.91;5023702;28;20382;-33
2022/11/22 11:04:01;;;;;;;;;;;;;;;6.66;nan;100402.34;5024097;28;19971;-33
2022/11/22 11:06:40;;;;;;;;;;;;;;;6.62;nan;100401.97;5023558;28;19922;-32
2022/11/22 11:09:09;;;;;;;;;;;;;;;6.59;nan;100405.09;5025838;28;19917;-32
2022/11/22 11:11:37;;;;;;;;;;;;;;;6.62;nan;100406.50;5022364;28;19932;-33
2022/11/22 11:14:25;;;;;;;;;;;;;;;6.55;nan;100416.44;5022493;28;19920;-33
2022/11/22 11:16:51;;;;;;;;;;;;;;;6.53;nan;100426.53;5017084;28;20172;-33
2022/11/22 11:19:18;;;;;;;;;;;;;;;6.53;nan;100431.84;5024979;28;19917;-33
2022/11/22 11:21:43;;;;;;;;;;;;;;;6.59;nan;100431.72;5022204;28;19933;-33
2022/11/22 11:24:13;;;;;;;;;;;;;;;6.60;nan;100430.69;5024558;28;20264;-32
2022/11/22 11:26:39;;;;;;;;;;;;;;;6.63;nan;100426.75;5022535;28;19931;-32
2022/11/22 11:29:16;;;;;;;;;;;;;;;6.65;nan;100424.69;5019894;28;20302;-33
2022/11/22 11:31:46;;;;;;;;;;;;;;;6.65;nan;100420.19;5022565;28;19925;-33
2022/11/22 11:34:19;;;;;;;;;;;;;;;6.65;nan;100422.84;5023283;28;20275;-33
2022/11/22 11:36:45;;;;;;;;;;;;;;;6.70;nan;100416.81;5023679;28;20019;-32
2022/11/22 11:39:20;;;;;;;;;;;;;;;6.77;nan;100422.84;5025188;28;19963;-33
2022/11/22 11:41:46;;;;;;;;;;;;;;;6.74;nan;100425.16;5019204;28;19921;-33
2022/11/22 11:44:27;;;;;;;;;;;;;;;6.72;nan;100427.25;5018854;28;19928;-33
2022/11/22 11:46:52;;;;;;;;;;;;;;;6.68;nan;100437.53;5016999;28;19928;-33
2022/11/22 11:49:23;;;;;;;;;;;;;;;6.68;nan;100440.22;5021460;28;19917;-33
2022/11/22 11:51:53;;;;;;;;;;;;;;;6.70;nan;100432.78;5019666;28;19917;-32
2022/11/22 11:54:38;;;;;;;;;;;;;;;6.68;nan;100440.22;5021151;28;19920;-33
2022/11/22 11:57:06;;;;;;;;;;;;;;;6.68;nan;100434.88;5020339;28;20763;-32
2022/11/22 11:59:37;;;;;;;;;;;;;;;6.68;nan;100434.06;5019079;28;20577;-33
2022/11/22 12:02:15;;;;;;;;;;;;;;;6.70;nan;100427.47;5022017;28;19928;-33
2022/11/22 12:04:55;;;;;;;;;;;;;;;6.75;nan;100427.59;5021089;28;19921;-33
2022/11/22 12:07:32;;;;;;;;;;;;;;;6.78;nan;100427.13;5019154;28;19979;-33
2022/11/22 12:09:57;;;;;;;;;;;;;;;6.80;nan;100434.88;5020036;28;19924;-33
2022/11/22 12:12:30;;;;;;;;;;;;;;;6.88;nan;100439.88;5019175;28;19925;-33
2022/11/22 12:15:06;;;;;;;;;;;;;;;6.93;nan;100440.78;5017360;28;19921;-33
2022/11/22 12:17:35;;;;;;;;;;;;;;;7.01;nan;100430.84;5019397;28;19928;-33
2022/11/22 12:20:03;;;;;;;;;;;;;;;7.02;nan;100430.63;5019219;28;19975;-33
2022/11/22 12:22:40;;;;;;;;;;;;;;;7.09;nan;100428.63;5017875;28;19925;-33
2022/11/22 12:25:20;;;;;;;;;;;;;;;7.10;nan;100432.91;5020735;28;19943;-32
2022/11/22 12:27:45;;;;;;;;;;;;;;;7.13;nan;100429.78;5017963;28;19925;-33
2022/11/22 12:30:11;;;;;;;;;;;;;;;7.17;nan;100420.28;5018021;28;19921;-34
2022/11/22 12:32:51;;;;;;;;;;;;;;;7.22;nan;100415.06;5020444;28;20011;-33
2022/11/22 12:35:21;;;;;;;;;;;;;;;7.25;nan;100411.94;5019925;28;19944;-33
2022/11/22 12:37:49;;;;;;;;;;;;;;;7.25;nan;100403.94;5019674;28;19928;-33
2022/11/22 12:40:22;;;;;;;;;;;;;;;7.24;nan;100406.84;5016936;28;20403;-34
2022/11/22 12:42:51;;;;;;;;;;;;;;;7.15;nan;100403.72;5019062;28;19987;-33
2022/11/22 12:45:34;;;;;;;;;;;;;;;7.12;nan;100390.06;5016751;28;19976;-33
2022/11/22 12:48:03;;;;;;;;;;;;;;;7.10;nan;100389.47;5020226;28;19925;-33
2022/11/22 12:50:37;;;;;;;;;;;;;;;7.08;nan;100380.91;5018507;28;19921;-33
2022/11/22 12:53:12;;;;;;;;;;;;;;;7.09;nan;100382.53;5014269;28;19925;-33
2022/11/22 12:55:48;;;;;;;;;;;;;;;7.08;nan;100387.06;5020729;28;20024;-33
2022/11/22 12:58:19;;;;;;;;;;;;;;;7.04;nan;100387.75;5020893;28;19924;-33
2022/11/22 13:01:07;;;;;;;;;;;;;;;7.02;nan;100392.53;5015787;28;21405;-33
2022/11/22 13:03:36;;;;;;;;;;;;;;;7.06;nan;100383.81;5017146;28;19939;-33
2022/11/22 13:06:04;;;;;;;;;;;;;;;7.08;nan;100396.91;5021766;28;19925;-33
2022/11/22 13:08:29;;;;;;;;;;;;;;;7.08;nan;100399.56;5018928;28;19932;-33
2022/11/22 13:11:04;;;;;;;;;;;;;;;7.06;nan;100401.66;5019370;28;19921;-33
2022/11/22 13:13:30;;;;;;;;;;;;;;;7.01;nan;100394.38;5019562;28;20331;-42
2022/11/22 13:15:57;;;;;;;;;;;;;;;6.95;nan;100403.28;5018959;28;19932;-33
2022/11/22 13:18:27;;;;;;;;;;;;;;;6.91;nan;100402.94;5019713;28;20287;-33
2022/11/22 13:21:08;;;;;;;;;;;;;;;6.90;nan;100398.66;5018574;28;19932;-33
2022/11/22 13:23:49;;;;;;;;;;;;;;;6.94;nan;100397.13;5023202;28;20312;-33
2022/11/22 13:26:33;;;;;;;;;;;;;;;6.92;nan;100393.91;5023463;28;19929;-33
2022/11/22 13:29:01;;;;;;;;;;;;;;;6.94;nan;100386.47;5023389;28;20489;-33